Ashton, Missouri
Current Conditions -  °F | °C
As of 6:15 PM on Friday 21 Nov 2014 (Local Time) from KEOK Reporting Station
Overcast Overcast  
Wind Chill: 31°   Ceiling: 2400
Heat Index: 37°   Visibility: 10mi
Dew Point: 19°   Wind: 9mph
Humidity: 48%   Direction: 150°SSE
Pressure: 30.2"   Gusts: NA
Location:  40.513°N, 91.8882°W
Report Text: KEOK 220015Z AUTO 15008KT 120V180 10SM OVC024 03/M07 A3020 RMK AO2
Loading
Personal Weather Stations






























Interactive Weather Map New forecast layout! Learn more

10-Day Weather Forecast

Advertisements
Track Severe Weather on mobile